createdAt,value
2023-02-02T00:00:22.286Z,3.17
2023-02-02T00:02:48.902Z,3.05
2023-02-02T00:05:15.622Z,3.72
2023-02-02T00:07:42.349Z,2.95
2023-02-02T00:10:09.582Z,3.58
2023-02-02T00:12:36.212Z,2.58
2023-02-02T00:15:02.965Z,3.67
2023-02-02T00:17:29.603Z,2.97
2023-02-02T00:19:56.346Z,2.97
2023-02-02T00:22:23.071Z,2.88
2023-02-02T00:24:49.700Z,3.53
2023-02-02T00:27:16.383Z,2.92
2023-02-02T00:29:43.101Z,2.30
2023-02-02T00:32:09.732Z,3.80
2023-02-02T00:34:36.381Z,2.70
2023-02-02T00:37:03.030Z,2.70
2023-02-02T00:39:29.817Z,4.03
2023-02-02T00:41:56.601Z,2.10
2023-02-02T00:44:42.339Z,3.05
2023-02-02T00:47:09.028Z,3.08
2023-02-02T00:49:35.836Z,3.22
2023-02-02T00:52:02.616Z,2.38
2023-02-02T00:54:29.631Z,2.65
2023-02-02T00:56:56.268Z,3.47
2023-02-02T00:59:22.962Z,2.15
2023-02-02T01:01:49.812Z,2.47
2023-02-02T01:04:16.479Z,2.50
2023-02-02T01:06:43.243Z,3.30
2023-02-02T01:09:09.924Z,2.72
2023-02-02T01:11:36.875Z,3.42
2023-02-02T01:14:03.796Z,5.00
2023-02-02T01:16:30.545Z,3.08
2023-02-02T01:18:57.307Z,3.40
2023-02-02T01:21:24.075Z,3.08
2023-02-02T01:23:50.937Z,4.35
2023-02-02T01:26:18.230Z,3.00
2023-02-02T01:28:45.634Z,3.70
2023-02-02T01:31:16.103Z,3.20
2023-02-02T01:33:44.732Z,2.90
2023-02-02T01:36:14.276Z,3.35
2023-02-02T01:38:42.194Z,3.88
2023-02-02T01:41:12.964Z,3.38
2023-02-02T01:43:45.394Z,3.05
2023-02-02T01:46:16.264Z,2.75
2023-02-02T01:48:48.461Z,3.25
2023-02-02T01:51:19.439Z,2.20
2023-02-02T01:53:49.319Z,2.85
2023-02-02T01:56:24.487Z,2.78
2023-02-02T01:58:51.285Z,2.70
2023-02-02T02:01:17.945Z,2.50
2023-02-02T02:03:44.659Z,2.80
2023-02-02T02:06:14.397Z,3.22
2023-02-02T02:08:52.112Z,3.78
2023-02-02T02:11:20.283Z,3.95
2023-02-02T02:14:05.862Z,3.55
2023-02-02T02:16:35.691Z,3.17
2023-02-02T02:20:08.805Z,4.03
2023-02-02T02:23:08.314Z,3.20
2023-02-02T02:26:14.704Z,3.45
2023-02-02T02:29:04.970Z,4.47
2023-02-02T02:32:02.947Z,3.05
2023-02-02T02:34:29.586Z,2.53
2023-02-02T02:37:00.923Z,3.58
2023-02-02T02:39:35.779Z,4.15
2023-02-02T02:42:13.079Z,3.13
2023-02-02T02:44:41.424Z,2.42
2023-02-02T02:47:08.754Z,3.40
2023-02-02T02:49:43.253Z,3.08
2023-02-02T02:52:09.922Z,2.55
2023-02-02T02:54:42.889Z,2.67
2023-02-02T02:57:47.377Z,2.15
2023-02-02T03:00:39.132Z,3.42
2023-02-02T03:03:10.949Z,2.07
2023-02-02T03:06:02.901Z,1.67
2023-02-02T03:08:55.304Z,2.13
2023-02-02T03:11:22.243Z,2.47
2023-02-02T03:13:49.074Z,2.38
2023-02-02T03:16:17.297Z,2.70
2023-02-02T03:18:44.439Z,2.65
2023-02-02T03:21:11.432Z,2.80
2023-02-02T03:23:38.672Z,2.85
2023-02-02T03:26:05.795Z,3.33
2023-02-02T03:28:32.698Z,4.00
2023-02-02T03:31:01.752Z,3.60
2023-02-02T03:33:29.828Z,4.05
2023-02-02T03:35:56.490Z,3.25
2023-02-02T03:38:23.191Z,2.97
2023-02-02T03:40:51.188Z,2.80
2023-02-02T03:43:24.772Z,3.95
2023-02-02T03:45:58.838Z,4.90
2023-02-02T03:48:26.656Z,2.60
2023-02-02T03:50:53.911Z,2.83
2023-02-02T03:53:20.696Z,3.20
2023-02-02T03:55:47.290Z,3.28
2023-02-02T03:58:13.927Z,3.72
2023-02-02T04:00:40.614Z,3.65
2023-02-02T04:03:07.315Z,3.20
2023-02-02T04:05:33.951Z,3.33
2023-02-02T04:08:00.615Z,3.30
2023-02-02T04:10:27.284Z,3.30
2023-02-02T04:12:54.068Z,4.40
2023-02-02T04:15:20.720Z,4.40
2023-02-02T04:17:47.396Z,3.60
2023-02-02T04:20:14.070Z,3.40
2023-02-02T04:22:40.755Z,3.63
2023-02-02T04:25:07.825Z,3.30
2023-02-02T04:27:34.519Z,5.20
2023-02-02T04:30:01.169Z,3.10
2023-02-02T04:32:27.844Z,3.67
2023-02-02T04:34:54.553Z,4.00
2023-02-02T04:37:21.179Z,4.13
2023-02-02T04:39:48.599Z,4.07
2023-02-02T04:42:15.232Z,4.25
2023-02-02T04:44:43.912Z,3.45
2023-02-02T04:47:10.578Z,3.42
2023-02-02T04:49:37.836Z,4.10
2023-02-02T04:52:04.824Z,3.33
2023-02-02T04:54:32.213Z,3.72
2023-02-02T04:56:58.886Z,3.75
2023-02-02T04:59:28.816Z,3.22
2023-02-02T05:01:59.170Z,3.55
2023-02-02T05:04:26.037Z,3.38
2023-02-02T05:06:52.753Z,3.70
2023-02-02T05:09:19.785Z,3.70
2023-02-02T05:11:46.411Z,4.18
2023-02-02T05:14:13.180Z,3.67
2023-02-02T05:16:39.859Z,4.22
2023-02-02T05:19:06.513Z,3.65
2023-02-02T05:21:33.116Z,4.45
2023-02-02T05:24:01.112Z,3.60
2023-02-02T05:26:27.839Z,4.03
2023-02-02T05:28:54.866Z,3.10
2023-02-02T05:31:21.715Z,5.20
2023-02-02T05:33:48.417Z,3.70
2023-02-02T05:36:15.560Z,4.72
2023-02-02T05:38:42.225Z,4.47
2023-02-02T05:41:09.030Z,3.90
2023-02-02T05:43:35.864Z,3.88
2023-02-02T05:46:02.688Z,4.05
2023-02-02T05:48:29.550Z,4.25
2023-02-02T05:51:12.323Z,5.25
2023-02-02T05:53:38.976Z,4.53
2023-02-02T05:56:05.831Z,3.97
2023-02-02T05:58:32.471Z,5.00
2023-02-02T06:00:59.208Z,3.17
2023-02-02T06:03:26.045Z,3.90
2023-02-02T06:05:52.878Z,3.72
2023-02-02T06:08:19.780Z,4.13
2023-02-02T06:10:46.537Z,4.53
2023-02-02T06:13:13.205Z,4.65
2023-02-02T06:15:41.659Z,4.53
2023-02-02T06:18:08.560Z,3.92
2023-02-02T06:20:36.384Z,3.95
2023-02-02T06:23:03.398Z,4.10
2023-02-02T06:25:30.229Z,4.60
2023-02-02T06:27:58.382Z,4.50
2023-02-02T06:30:25.841Z,3.25
2023-02-02T06:32:52.770Z,3.85
2023-02-02T06:35:20.163Z,3.15
2023-02-02T06:37:46.943Z,4.03
2023-02-02T06:40:13.812Z,3.53
2023-02-02T06:42:40.942Z,3.53
2023-02-02T06:45:08.216Z,4.50
2023-02-02T06:47:34.974Z,3.20
2023-02-02T06:50:01.680Z,2.88
2023-02-02T06:52:28.654Z,3.75
2023-02-02T06:54:55.450Z,3.28
2023-02-02T06:57:22.161Z,3.50
2023-02-02T06:59:48.781Z,3.63
2023-02-02T07:02:15.647Z,4.55
2023-02-02T07:04:42.411Z,3.55
2023-02-02T07:07:09.136Z,4.05
2023-02-02T07:09:35.952Z,4.22
2023-02-02T07:12:02.630Z,3.47
2023-02-02T07:14:29.296Z,3.42
2023-02-02T07:16:55.929Z,5.85
2023-02-02T07:19:22.715Z,3.35
2023-02-02T07:21:49.646Z,4.50
2023-02-02T07:24:16.376Z,5.80
2023-02-02T07:26:43.049Z,4.72
2023-02-02T07:29:13.487Z,3.70
2023-02-02T07:31:40.659Z,5.80
2023-02-02T07:34:07.399Z,4.28
2023-02-02T07:36:34.093Z,5.20
2023-02-02T07:39:03.895Z,3.08
2023-02-02T07:41:31.266Z,3.70
2023-02-02T07:43:58.100Z,4.63
2023-02-02T07:46:25.196Z,3.90
2023-02-02T07:48:55.621Z,3.53
2023-02-02T07:51:23.415Z,3.50
2023-02-02T07:53:52.979Z,3.67
2023-02-02T07:56:25.617Z,3.20
2023-02-02T07:58:53.976Z,3.90
2023-02-02T08:01:23.071Z,3.20
2023-02-02T08:03:53.626Z,3.25
2023-02-02T08:06:26.377Z,2.75
2023-02-02T08:08:53.081Z,3.63
2023-02-02T08:11:22.559Z,3.30
2023-02-02T08:13:50.841Z,2.28
2023-02-02T08:16:17.632Z,3.35
2023-02-02T08:18:44.682Z,3.58
2023-02-02T08:21:12.271Z,2.97
2023-02-02T08:23:40.799Z,3.35
2023-02-02T08:26:25.613Z,5.00
2023-02-02T08:28:57.967Z,4.57
2023-02-02T08:33:58.570Z,5.90
2023-02-02T08:36:27.453Z,3.05
2023-02-02T08:38:54.405Z,4.55
2023-02-02T08:41:24.148Z,4.80
2023-02-02T08:43:51.269Z,5.45
2023-02-02T08:46:20.649Z,4.82
2023-02-02T08:48:48.344Z,4.47
2023-02-02T08:51:18.964Z,5.15
2023-02-02T08:53:46.774Z,5.78
2023-02-02T08:56:21.273Z,4.72
2023-02-02T08:58:53.749Z,4.15
2023-02-02T09:01:23.676Z,4.57
2023-02-02T09:03:55.451Z,4.53
2023-02-02T09:06:24.736Z,3.70
2023-02-02T09:08:51.508Z,3.88
2023-02-02T09:11:19.811Z,4.07
2023-02-02T09:13:48.855Z,5.20
2023-02-02T09:16:19.946Z,4.60
2023-02-02T09:18:46.816Z,3.53
2023-02-02T09:21:15.912Z,3.88
2023-02-02T09:23:44.633Z,4.47
2023-02-02T09:26:14.278Z,3.53
2023-02-02T09:28:43.413Z,3.53
2023-02-02T09:31:10.489Z,4.38
2023-02-02T09:33:37.393Z,4.80
2023-02-02T09:36:06.167Z,4.28
2023-02-02T09:38:32.936Z,3.75
2023-02-02T09:41:00.908Z,4.50
2023-02-02T09:43:56.104Z,4.93
2023-02-02T09:46:34.670Z,4.38
2023-02-02T09:49:12.178Z,5.15
2023-02-02T09:51:43.398Z,3.50
2023-02-02T09:54:19.530Z,4.97
2023-02-02T09:56:51.213Z,4.55
2023-02-02T09:59:31.050Z,3.92
2023-02-02T10:02:03.038Z,3.70
2023-02-02T10:04:29.719Z,4.40
2023-02-02T10:07:00.617Z,5.13
2023-02-02T10:09:43.535Z,4.35
2023-02-02T10:12:47.121Z,4.80
2023-02-02T10:15:35.212Z,3.78
2023-02-02T10:18:19.489Z,3.15
2023-02-02T10:21:00.984Z,3.30
2023-02-02T10:23:29.421Z,2.45
2023-02-02T10:26:05.852Z,3.08
2023-02-02T10:28:42.704Z,3.65
2023-02-02T10:31:22.073Z,4.47
2023-02-02T10:34:18.275Z,4.40
2023-02-02T10:37:03.824Z,3.67
2023-02-02T10:39:56.854Z,3.20
2023-02-02T10:42:45.431Z,4.10
2023-02-02T10:45:19.392Z,4.63
2023-02-02T10:47:46.417Z,3.92
2023-02-02T10:50:13.295Z,3.65
2023-02-02T10:53:09.756Z,3.10
2023-02-02T10:55:51.736Z,4.32
2023-02-02T10:58:28.628Z,3.45
2023-02-02T11:00:58.135Z,3.75
2023-02-02T11:03:31.116Z,3.88
2023-02-02T11:06:19.353Z,3.40
2023-02-02T11:08:49.118Z,4.63
2023-02-02T11:11:25.739Z,3.70
2023-02-02T11:13:58.143Z,3.20
2023-02-02T11:19:18.198Z,2.75
2023-02-02T11:21:50.317Z,2.58
2023-02-02T11:24:57.060Z,3.00
2023-02-02T11:27:30.922Z,2.38
2023-02-02T11:30:00.938Z,2.95
2023-02-02T11:32:35.719Z,2.60
2023-02-02T11:35:02.409Z,3.42
2023-02-02T11:37:29.693Z,2.38
2023-02-02T11:40:34.930Z,2.35
2023-02-02T11:43:05.524Z,2.90
2023-02-02T11:45:41.515Z,2.72
2023-02-02T11:48:18.397Z,2.63
2023-02-02T11:50:51.391Z,2.60
2023-02-02T11:53:26.805Z,2.50
2023-02-02T11:55:55.178Z,2.95
2023-02-02T11:58:29.940Z,2.55
2023-02-02T12:01:02.814Z,2.70
2023-02-02T12:03:37.730Z,2.85
2023-02-02T12:06:24.693Z,3.08
2023-02-02T12:08:56.925Z,3.58
2023-02-02T12:11:40.995Z,3.13
2023-02-02T12:14:38.612Z,4.15
2023-02-02T12:17:26.983Z,3.13
2023-02-02T12:20:05.434Z,3.45
2023-02-02T12:22:34.924Z,3.28
2023-02-02T12:25:15.673Z,2.97
2023-02-02T12:27:45.302Z,3.30
2023-02-02T12:30:34.457Z,2.83
2023-02-02T12:33:25.966Z,2.63
2023-02-02T12:36:20.617Z,3.17
2023-02-02T12:39:11.161Z,2.78
2023-02-02T12:41:55.877Z,5.18
2023-02-02T12:44:37.609Z,3.50
2023-02-02T12:47:22.711Z,3.13
2023-02-02T12:50:21.148Z,2.53
2023-02-02T12:53:37.191Z,3.63
2023-02-02T12:56:13.043Z,2.65
2023-02-02T12:58:56.319Z,2.97
2023-02-02T13:01:31.860Z,3.22
2023-02-02T13:03:58.656Z,2.80
2023-02-02T13:06:29.358Z,3.45
2023-02-02T13:09:04.617Z,3.13
2023-02-02T13:11:50.538Z,2.95
2023-02-02T13:14:25.978Z,2.70
2023-02-02T13:16:57.007Z,3.55
2023-02-02T13:19:40.146Z,3.90
2023-02-02T13:22:29.322Z,3.00
2023-02-02T13:25:01.213Z,3.65
2023-02-02T13:27:30.307Z,3.40
2023-02-02T13:30:12.157Z,3.25
2023-02-02T13:32:42.888Z,2.47
2023-02-02T13:35:27.487Z,2.80
2023-02-02T13:38:04.255Z,2.67
2023-02-02T13:40:36.558Z,2.40
2023-02-02T13:43:15.640Z,3.22
2023-02-02T13:46:10.117Z,3.03
2023-02-02T13:48:39.615Z,5.55
2023-02-02T13:51:35.406Z,3.47
2023-02-02T13:54:27.445Z,2.78
2023-02-02T13:57:21.743Z,2.22
2023-02-02T14:00:03.650Z,2.88
2023-02-02T14:02:53.751Z,3.45
2023-02-02T14:05:34.291Z,2.67
2023-02-02T14:08:17.371Z,3.15
2023-02-02T14:10:59.943Z,3.38
2023-02-02T14:13:53.262Z,2.13
2023-02-02T14:16:23.375Z,3.00
2023-02-02T14:18:55.991Z,2.33
2023-02-02T14:21:31.749Z,3.50
2023-02-02T14:24:21.899Z,2.53
2023-02-02T14:26:51.404Z,2.53
2023-02-02T14:29:31.418Z,2.22
2023-02-02T14:32:07.408Z,2.75
2023-02-02T14:34:36.917Z,2.10
2023-02-02T14:37:09.661Z,2.50
2023-02-02T14:40:00.905Z,2.13
2023-02-02T14:43:05.167Z,2.00
2023-02-02T14:45:39.069Z,2.28
2023-02-02T14:48:23.516Z,2.40
2023-02-02T14:50:56.125Z,3.00
2023-02-02T14:53:30.513Z,3.28
2023-02-02T14:56:13.144Z,2.58
2023-02-02T14:58:54.420Z,2.67
2023-02-02T15:01:24.158Z,2.53
2023-02-02T15:04:21.956Z,2.53
2023-02-02T15:06:51.201Z,2.38
2023-02-02T15:09:22.379Z,2.05
2023-02-02T15:12:08.683Z,2.47
2023-02-02T15:15:15.993Z,2.10
2023-02-02T15:17:56.075Z,2.45
2023-02-02T15:20:31.234Z,2.13
2023-02-02T15:23:15.376Z,2.97
2023-02-02T15:25:47.606Z,2.55
2023-02-02T15:28:24.344Z,2.33
2023-02-02T15:31:07.588Z,2.00
2023-02-02T15:33:42.183Z,1.98
2023-02-02T15:36:33.461Z,2.28
2023-02-02T15:39:09.690Z,1.95
2023-02-02T15:41:46.509Z,1.75
2023-02-02T15:44:20.503Z,1.98
2023-02-02T15:46:48.564Z,2.13
2023-02-02T15:49:34.434Z,2.03
2023-02-02T15:52:15.459Z,3.15
2023-02-02T15:54:59.293Z,1.70
2023-02-02T15:57:35.225Z,1.58
2023-02-02T16:00:23.979Z,2.75
2023-02-02T16:03:06.550Z,2.63
2023-02-02T16:08:08.579Z,2.80
2023-02-02T16:10:35.736Z,1.83
2023-02-02T16:13:02.998Z,1.77
2023-02-02T16:15:32.049Z,3.20
2023-02-02T16:18:00.147Z,1.85
2023-02-02T16:20:29.612Z,2.00
2023-02-02T16:23:01.990Z,1.60
2023-02-02T16:25:33.393Z,1.83
2023-02-02T16:28:01.003Z,1.85
2023-02-02T16:30:30.836Z,1.63
2023-02-02T16:32:57.851Z,1.45
2023-02-02T16:35:30.850Z,1.70
2023-02-02T16:38:14.662Z,1.48
2023-02-02T16:40:41.716Z,2.20
2023-02-02T16:43:18.999Z,2.03
2023-02-02T16:45:55.692Z,2.35
2023-02-02T16:48:42.440Z,3.00
2023-02-02T16:51:18.082Z,1.92
2023-02-02T16:53:47.895Z,3.08
2023-02-02T16:56:28.802Z,3.55
2023-02-02T16:58:58.353Z,2.95
2023-02-02T17:01:44.464Z,2.45
2023-02-02T17:04:23.381Z,2.50
2023-02-02T17:06:53.234Z,2.30
2023-02-02T17:09:34.009Z,2.42
2023-02-02T17:12:32.751Z,3.60
2023-02-02T17:15:20.610Z,2.80
2023-02-02T17:17:48.834Z,3.13
2023-02-02T17:20:16.949Z,2.88
2023-02-02T17:22:46.606Z,3.15
2023-02-02T17:25:19.752Z,2.83
2023-02-02T17:27:46.982Z,3.10
2023-02-02T17:30:16.597Z,2.55
2023-02-02T17:32:43.285Z,3.10
2023-02-02T17:35:17.267Z,4.05
2023-02-02T17:37:43.990Z,3.10
2023-02-02T17:40:15.158Z,2.72
2023-02-02T17:42:43.935Z,3.20
2023-02-02T17:45:16.333Z,2.40
2023-02-02T17:50:11.101Z,2.50
2023-02-02T17:52:38.640Z,2.08
2023-02-02T17:55:27.114Z,2.95
2023-02-02T17:57:54.460Z,2.35
2023-02-02T18:00:24.583Z,2.17
2023-02-02T18:02:57.193Z,2.50
2023-02-02T18:05:24.226Z,2.22
2023-02-02T18:07:51.044Z,2.38
2023-02-02T18:10:24.740Z,2.03
2023-02-02T18:12:51.851Z,2.35
2023-02-02T18:15:18.671Z,3.47
2023-02-02T18:17:45.299Z,2.42
2023-02-02T18:20:14.903Z,2.17
2023-02-02T18:22:44.212Z,2.05
2023-02-02T18:25:11.453Z,3.72
2023-02-02T18:27:38.188Z,3.33
2023-02-02T18:30:05.473Z,3.45
2023-02-02T18:32:37.045Z,2.85
2023-02-02T18:35:04.566Z,2.42
2023-02-02T18:37:31.241Z,3.20
2023-02-02T18:39:57.875Z,4.53
2023-02-02T18:42:26.389Z,2.15
2023-02-02T18:44:53.613Z,3.08
2023-02-02T18:47:20.348Z,2.50
2023-02-02T18:49:47.115Z,3.63
2023-02-02T18:52:13.762Z,2.47
2023-02-02T18:54:40.603Z,2.35
2023-02-02T18:57:07.576Z,1.75
2023-02-02T18:59:36.004Z,2.03
2023-02-02T19:02:02.771Z,2.33
2023-02-02T19:04:29.616Z,2.85
2023-02-02T19:07:15.185Z,2.22
2023-02-02T19:09:41.880Z,2.97
2023-02-02T19:12:15.723Z,2.97
2023-02-02T19:14:43.233Z,2.88
2023-02-02T19:17:22.097Z,1.95
2023-02-02T19:19:49.812Z,2.17
2023-02-02T19:22:24.879Z,2.13
2023-02-02T19:24:51.538Z,2.83
2023-02-02T19:27:21.528Z,2.50
2023-02-02T19:29:50.940Z,1.45
2023-02-02T19:32:23.108Z,1.77
2023-02-02T19:34:52.742Z,2.00
2023-02-02T19:37:30.677Z,2.38
2023-02-02T19:40:09.543Z,2.33
2023-02-02T19:42:43.223Z,2.08
2023-02-02T19:45:31.692Z,2.33
2023-02-02T19:48:01.303Z,2.20
2023-02-02T19:50:32.715Z,1.85
2023-02-02T19:53:01.832Z,2.40
2023-02-02T19:55:36.033Z,1.73
2023-02-02T19:58:18.338Z,3.22
2023-02-02T20:00:47.014Z,1.92
2023-02-02T20:03:23.219Z,5.50
2023-02-02T20:05:55.869Z,3.22
2023-02-02T20:08:42.072Z,2.00
2023-02-02T20:11:23.886Z,1.58
2023-02-02T20:13:51.366Z,2.55
2023-02-02T20:16:23.773Z,2.13
2023-02-02T20:18:55.317Z,7.70
2023-02-02T20:21:42.986Z,3.13
2023-02-02T20:24:22.519Z,2.83
2023-02-02T20:26:50.470Z,4.65
2023-02-02T20:29:36.385Z,4.20
2023-02-02T20:32:05.166Z,3.00
2023-02-02T20:34:35.706Z,2.42
2023-02-02T20:37:15.840Z,2.63
2023-02-02T20:39:48.154Z,2.85
2023-02-02T20:44:42.871Z,1.88
2023-02-02T20:47:09.883Z,2.85
2023-02-02T20:49:37.521Z,2.50
2023-02-02T20:52:11.824Z,2.45
2023-02-02T20:54:39.428Z,2.95
2023-02-02T20:57:06.300Z,3.55
2023-02-02T20:59:33.046Z,2.97
2023-02-02T21:02:00.136Z,2.83
2023-02-02T21:04:27.003Z,2.45
2023-02-02T21:06:55.302Z,2.70
2023-02-02T21:09:22.090Z,2.83
2023-02-02T21:11:48.844Z,2.35
2023-02-02T21:14:15.580Z,1.70
2023-02-02T21:16:42.507Z,1.95
2023-02-02T21:19:09.348Z,2.03
2023-02-02T21:21:36.367Z,2.85
2023-02-02T21:24:04.162Z,2.05
2023-02-02T21:26:31.119Z,1.90
2023-02-02T21:28:58.474Z,2.53
2023-02-02T21:31:25.869Z,2.47
2023-02-02T21:33:53.228Z,1.88
2023-02-02T21:36:31.866Z,2.47
2023-02-02T21:39:14.438Z,2.20
2023-02-02T21:44:22.394Z,2.58
2023-02-02T21:46:51.298Z,2.05
2023-02-02T21:49:38.331Z,2.20
2023-02-02T21:52:15.734Z,1.80
2023-02-02T21:54:42.815Z,2.10
2023-02-02T21:57:13.832Z,2.05
2023-02-02T21:59:40.593Z,2.20
2023-02-02T22:02:44.971Z,2.03
2023-02-02T22:05:35.184Z,2.10
2023-02-02T22:08:07.880Z,2.25
2023-02-02T22:10:43.251Z,1.92
2023-02-02T22:13:19.106Z,1.95
2023-02-02T22:15:47.759Z,1.80
2023-02-02T22:18:20.552Z,1.40
2023-02-02T22:20:49.630Z,1.60
2023-02-02T22:23:27.655Z,1.13
2023-02-02T22:25:58.958Z,1.50
2023-02-02T22:28:27.390Z,1.80
2023-02-02T22:30:55.949Z,1.92
2023-02-02T22:33:23.489Z,1.70
2023-02-02T22:35:50.614Z,2.80
2023-02-02T22:38:19.777Z,1.23
2023-02-02T22:40:47.824Z,1.80
2023-02-02T22:43:16.291Z,1.70
2023-02-02T22:45:43.821Z,1.60
2023-02-02T22:48:11.572Z,1.58
2023-02-02T22:50:38.690Z,1.85
2023-02-02T22:53:05.737Z,1.38
2023-02-02T22:55:33.003Z,1.75
2023-02-02T22:58:00.175Z,1.50
2023-02-02T23:00:30.029Z,1.85
2023-02-02T23:02:57.237Z,1.65
2023-02-02T23:05:25.567Z,2.28
2023-02-02T23:07:53.461Z,1.88
2023-02-02T23:10:24.107Z,2.15
2023-02-02T23:12:53.635Z,1.52
2023-02-02T23:15:20.977Z,2.00
2023-02-02T23:17:47.875Z,1.80
2023-02-02T23:20:15.327Z,1.75
2023-02-02T23:22:42.105Z,1.38
2023-02-02T23:25:09.141Z,1.95
2023-02-02T23:27:36.478Z,2.40
2023-02-02T23:30:03.916Z,1.65
2023-02-02T23:32:30.719Z,2.88
2023-02-02T23:34:57.455Z,2.03
2023-02-02T23:37:24.141Z,2.42
2023-02-02T23:39:50.832Z,4.75
2023-02-02T23:42:18.176Z,4.82
2023-02-02T23:44:44.883Z,3.08
2023-02-02T23:47:11.618Z,4.20
2023-02-02T23:49:38.638Z,2.58
2023-02-02T23:52:05.870Z,2.00
2023-02-02T23:54:32.959Z,1.90
2023-02-02T23:56:59.824Z,2.72
2023-02-02T23:59:26.532Z,2.05
